createdAt,value
2019-04-29T00:02:12.066Z,10.50
2019-04-29T00:04:41.593Z,10.50
2019-04-29T00:07:10.042Z,10.60
2019-04-29T00:09:38.154Z,10.60
2019-04-29T00:12:05.978Z,10.60
2019-04-29T00:14:34.420Z,10.60
2019-04-29T00:17:14.633Z,10.60
2019-04-29T00:19:52.382Z,10.60
2019-04-29T00:22:19.791Z,10.60
2019-04-29T00:24:47.181Z,10.60
2019-04-29T00:27:14.731Z,10.50
2019-04-29T00:29:42.216Z,10.60
2019-04-29T00:32:10.384Z,10.70
2019-04-29T00:34:38.158Z,10.70
2019-04-29T00:37:16.064Z,10.70
2019-04-29T00:40:04.235Z,10.80
2019-04-29T00:42:47.810Z,10.70
2019-04-29T00:45:15.501Z,10.70
2019-04-29T00:47:45.796Z,10.70
2019-04-29T00:50:14.327Z,10.90
2019-04-29T00:52:42.127Z,10.70
2019-04-29T00:55:13.218Z,10.70
2019-04-29T00:57:40.590Z,10.70
2019-04-29T01:00:11.544Z,10.70
2019-04-29T01:02:39.873Z,10.70
2019-04-29T01:05:07.508Z,10.80
2019-04-29T01:07:35.176Z,10.80
2019-04-29T01:10:02.960Z,10.80
2019-04-29T01:12:30.437Z,10.80
2019-04-29T01:14:57.890Z,10.80
2019-04-29T01:17:26.171Z,10.80
2019-04-29T01:19:53.647Z,11.00
2019-04-29T01:22:21.758Z,10.90
2019-04-29T01:24:49.111Z,10.90
2019-04-29T01:27:22.616Z,10.90
2019-04-29T01:29:49.958Z,10.90
2019-04-29T01:32:17.639Z,10.90
2019-04-29T01:34:51.807Z,10.90
2019-04-29T01:37:19.262Z,10.90
2019-04-29T01:40:04.585Z,10.90
2019-04-29T01:42:37.314Z,10.90
2019-04-29T01:45:05.049Z,10.90
2019-04-29T01:47:32.500Z,11.00
2019-04-29T01:49:59.854Z,11.00
2019-04-29T01:52:27.206Z,11.00
2019-04-29T01:54:54.593Z,11.00
2019-04-29T01:57:22.028Z,11.00
2019-04-29T01:59:49.589Z,11.00
2019-04-29T02:02:16.974Z,11.00
2019-04-29T02:04:44.418Z,11.00
2019-04-29T02:07:12.011Z,11.00
2019-04-29T02:09:57.839Z,11.10
2019-04-29T02:12:25.165Z,11.10
2019-04-29T02:14:52.509Z,11.00
2019-04-29T02:17:19.973Z,11.00
2019-04-29T02:19:47.417Z,11.10
2019-04-29T02:22:30.618Z,11.00
2019-04-29T02:25:11.197Z,11.00
2019-04-29T02:27:38.672Z,11.10
2019-04-29T02:30:07.231Z,11.10
2019-04-29T02:32:34.805Z,11.00
2019-04-29T02:35:02.377Z,11.00
2019-04-29T02:37:33.921Z,11.10
2019-04-29T02:40:10.747Z,11.00
2019-04-29T02:42:53.797Z,11.00
2019-04-29T02:45:25.833Z,11.00
2019-04-29T02:47:53.276Z,11.00
2019-04-29T02:50:20.761Z,11.50
2019-04-29T02:52:48.049Z,11.00
2019-04-29T02:55:19.847Z,11.00
2019-04-29T02:58:05.396Z,11.00
2019-04-29T03:00:56.353Z,11.00
2019-04-29T03:03:31.033Z,11.00
2019-04-29T03:06:00.167Z,11.10
2019-04-29T03:08:27.604Z,11.00
2019-04-29T03:10:54.945Z,11.00
2019-04-29T03:13:22.455Z,11.00
2019-04-29T03:15:50.112Z,11.00
2019-04-29T03:18:19.208Z,11.00
2019-04-29T03:21:00.547Z,10.90
2019-04-29T03:23:28.086Z,11.00
2019-04-29T03:25:56.080Z,10.90
2019-04-29T03:28:23.558Z,10.90
2019-04-29T03:30:51.150Z,10.90
2019-04-29T03:33:18.499Z,10.90
2019-04-29T03:35:46.570Z,10.90
2019-04-29T03:38:13.961Z,10.90
2019-04-29T03:40:42.406Z,10.90
2019-04-29T03:43:09.862Z,10.90
2019-04-29T03:45:37.367Z,10.90
2019-04-29T03:48:04.848Z,10.90
2019-04-29T03:50:32.361Z,10.90
2019-04-29T03:52:59.728Z,10.90
2019-04-29T03:55:39.055Z,10.90
2019-04-29T03:57:57.367Z,10.90
2019-04-29T04:00:25.031Z,10.90
2019-04-29T04:02:58.629Z,10.90
2019-04-29T04:05:33.372Z,10.90
2019-04-29T04:08:28.493Z,10.90
2019-04-29T04:10:55.855Z,10.90
2019-04-29T04:13:23.324Z,11.00
2019-04-29T04:15:50.682Z,11.00
2019-04-29T04:18:25.567Z,11.00
2019-04-29T04:20:52.901Z,11.00
2019-04-29T04:23:21.332Z,11.00
2019-04-29T04:25:48.738Z,11.00
2019-04-29T04:28:16.243Z,11.10
2019-04-29T04:30:43.598Z,11.10
2019-04-29T04:33:11.006Z,11.10
2019-04-29T04:35:38.651Z,11.10
2019-04-29T04:38:06.222Z,11.20
2019-04-29T04:40:38.392Z,11.20
2019-04-29T04:43:05.909Z,11.20
2019-04-29T04:45:33.366Z,11.30
2019-04-29T04:48:00.744Z,11.30
2019-04-29T04:50:28.261Z,11.30
2019-04-29T04:52:55.600Z,11.30
2019-04-29T04:55:25.858Z,11.30
2019-04-29T04:57:53.259Z,11.30
2019-04-29T05:00:23.045Z,11.30
2019-04-29T05:02:50.439Z,11.20
2019-04-29T05:05:17.920Z,11.40
2019-04-29T05:07:45.468Z,11.50
2019-04-29T05:10:12.900Z,11.50
2019-04-29T05:12:41.325Z,11.50
2019-04-29T05:15:09.543Z,11.50
2019-04-29T05:17:36.973Z,11.50
2019-04-29T05:20:04.626Z,11.50
2019-04-29T05:22:33.184Z,11.80
2019-04-29T05:25:00.598Z,11.50
2019-04-29T05:27:27.922Z,11.50
2019-04-29T05:30:13.683Z,11.60
2019-04-29T05:32:40.953Z,11.60
2019-04-29T05:35:11.792Z,11.60
2019-04-29T05:37:52.375Z,11.60
2019-04-29T05:40:57.337Z,11.60
2019-04-29T05:43:33.699Z,11.60
2019-04-29T05:46:10.715Z,11.60
2019-04-29T05:48:38.355Z,11.50
2019-04-29T05:51:28.597Z,11.70
2019-04-29T05:53:57.337Z,11.70
2019-04-29T05:56:24.906Z,11.70
2019-04-29T05:58:52.221Z,11.70
2019-04-29T06:01:22.904Z,11.70
2019-04-29T06:03:50.308Z,11.80
2019-04-29T06:06:17.725Z,11.80
2019-04-29T06:08:45.081Z,11.80
2019-04-29T06:11:12.714Z,11.90
2019-04-29T06:13:41.236Z,11.90
2019-04-29T06:16:08.562Z,11.90
2019-04-29T06:18:36.027Z,12.00
2019-04-29T06:21:09.384Z,12.00
2019-04-29T06:23:33.041Z,12.10
2019-04-29T06:26:47.919Z,12.20
2019-04-29T06:29:15.445Z,12.30
2019-04-29T06:31:42.885Z,12.40
2019-04-29T06:34:10.333Z,12.50
2019-04-29T06:36:37.616Z,12.50
2019-04-29T06:39:05.978Z,12.60
2019-04-29T06:41:33.339Z,12.50
2019-04-29T06:44:05.742Z,12.60
2019-04-29T06:46:30.086Z,12.60
2019-04-29T06:49:09.558Z,12.60
2019-04-29T06:51:26.793Z,12.70
2019-04-29T06:53:56.046Z,12.70
2019-04-29T06:56:24.163Z,12.70
2019-04-29T06:58:51.682Z,12.70
2019-04-29T07:01:18.988Z,12.70
2019-04-29T07:03:46.551Z,12.70
2019-04-29T07:06:14.004Z,12.80
2019-04-29T07:08:41.831Z,12.90
2019-04-29T07:11:10.137Z,13.00
2019-04-29T07:13:38.438Z,13.10
2019-04-29T07:16:05.890Z,13.20
2019-04-29T07:18:33.572Z,13.30
2019-04-29T07:21:01.076Z,13.40
2019-04-29T07:23:28.425Z,13.40
2019-04-29T07:25:55.973Z,13.40
2019-04-29T07:28:24.673Z,13.40
2019-04-29T07:31:10.037Z,13.50
2019-04-29T07:33:22.633Z,13.60
2019-04-29T07:35:50.859Z,13.70
2019-04-29T07:38:19.135Z,13.80
2019-04-29T07:40:46.571Z,13.90
2019-04-29T07:43:15.234Z,14.00
2019-04-29T07:45:58.766Z,14.40
2019-04-29T07:48:29.389Z,14.50
2019-04-29T07:50:59.530Z,14.70
2019-04-29T07:53:34.364Z,14.80
2019-04-29T07:55:55.419Z,14.90
2019-04-29T07:58:27.241Z,14.90
2019-04-29T08:00:56.232Z,14.80
2019-04-29T08:03:23.671Z,14.90
2019-04-29T08:05:51.836Z,14.90
2019-04-29T08:09:18.295Z,14.80
2019-04-29T08:11:47.212Z,14.70
2019-04-29T08:14:15.727Z,14.60
2019-04-29T08:16:43.317Z,14.50
2019-04-29T08:19:10.697Z,14.40
2019-04-29T08:21:38.350Z,14.40
2019-04-29T08:24:05.985Z,14.40
2019-04-29T08:26:38.504Z,14.50
2019-04-29T08:29:04.325Z,14.70
2019-04-29T08:31:32.610Z,14.70
2019-04-29T08:34:00.919Z,14.70
2019-04-29T08:36:28.232Z,14.60
2019-04-29T08:39:07.909Z,14.60
2019-04-29T08:41:28.646Z,14.60
2019-04-29T08:44:15.677Z,14.70
2019-04-29T08:46:44.467Z,14.60
2019-04-29T08:49:14.848Z,14.30
2019-04-29T08:51:42.251Z,14.50
2019-04-29T08:54:09.647Z,14.50
2019-04-29T08:56:42.476Z,14.50
2019-04-29T08:59:06.183Z,14.50
2019-04-29T09:01:34.218Z,14.70
2019-04-29T09:04:03.054Z,14.70
2019-04-29T09:06:32.673Z,14.70
2019-04-29T09:09:00.045Z,14.70
2019-04-29T09:11:27.841Z,14.80
2019-04-29T09:13:55.312Z,14.80
2019-04-29T09:16:22.758Z,14.90
2019-04-29T09:18:50.100Z,14.80
2019-04-29T09:21:17.586Z,14.80
2019-04-29T09:24:22.838Z,14.80
2019-04-29T09:26:55.722Z,14.80
2019-04-29T09:29:36.259Z,14.80
2019-04-29T09:32:04.979Z,14.80
2019-04-29T09:34:32.429Z,14.60
2019-04-29T09:37:00.040Z,14.60
2019-04-29T09:39:27.630Z,14.50
2019-04-29T09:42:23.739Z,14.50
2019-04-29T09:45:19.534Z,14.40
2019-04-29T09:47:45.326Z,14.30
2019-04-29T09:50:20.541Z,14.30
2019-04-29T09:52:48.917Z,14.40
2019-04-29T09:55:17.878Z,14.40
2019-04-29T09:57:45.491Z,14.50
2019-04-29T10:00:27.519Z,14.60
2019-04-29T10:03:03.055Z,14.50
2019-04-29T10:05:50.538Z,14.60
2019-04-29T10:08:18.400Z,14.50
2019-04-29T10:10:45.693Z,14.40
2019-04-29T10:13:13.243Z,14.50
2019-04-29T10:16:04.628Z,14.40
2019-04-29T10:18:39.091Z,14.30
2019-04-29T10:21:11.641Z,14.30
2019-04-29T10:23:39.431Z,14.30
2019-04-29T10:26:06.937Z,14.30
2019-04-29T10:28:45.403Z,14.30
2019-04-29T10:31:12.924Z,14.20
2019-04-29T10:33:40.246Z,14.20
2019-04-29T10:36:10.824Z,14.20
2019-04-29T10:38:40.526Z,14.10
2019-04-29T10:41:22.427Z,14.10
2019-04-29T10:44:12.436Z,14.00
2019-04-29T10:47:02.494Z,14.00
2019-04-29T10:49:34.778Z,14.00
2019-04-29T10:52:04.658Z,14.00
2019-04-29T10:54:33.241Z,14.00
2019-04-29T10:57:00.760Z,14.00
2019-04-29T10:59:35.922Z,13.90
2019-04-29T11:02:22.606Z,13.90
2019-04-29T11:04:52.770Z,13.70
2019-04-29T11:07:46.374Z,13.60
2019-04-29T11:10:25.736Z,13.90
2019-04-29T11:12:53.783Z,13.60
2019-04-29T11:15:23.453Z,13.50
2019-04-29T11:17:58.929Z,13.50
2019-04-29T11:20:21.760Z,13.50
2019-04-29T11:22:56.021Z,13.40
2019-04-29T11:25:51.013Z,13.40
2019-04-29T11:28:17.591Z,13.40
2019-04-29T11:30:45.465Z,13.40
2019-04-29T11:33:21.857Z,13.50
2019-04-29T11:36:03.923Z,13.50
2019-04-29T11:38:38.035Z,13.50
2019-04-29T11:41:02.985Z,13.40
2019-04-29T11:43:31.823Z,13.70
2019-04-29T11:45:59.303Z,13.70
2019-04-29T11:48:26.757Z,13.70
2019-04-29T11:51:03.916Z,13.80
2019-04-29T11:53:33.917Z,13.90
2019-04-29T11:56:02.263Z,13.70
2019-04-29T11:58:37.687Z,14.10
2019-04-29T12:01:37.951Z,14.00
2019-04-29T12:03:58.222Z,14.10
2019-04-29T12:06:31.589Z,14.10
2019-04-29T12:08:59.606Z,14.10
2019-04-29T12:11:28.648Z,14.20
2019-04-29T12:14:09.303Z,14.20
2019-04-29T12:16:40.486Z,14.30
2019-04-29T12:19:21.379Z,14.30
2019-04-29T12:21:47.279Z,14.50
2019-04-29T12:24:14.880Z,14.30
2019-04-29T12:26:44.363Z,14.40
2019-04-29T12:29:16.346Z,14.20
2019-04-29T12:31:51.323Z,14.10
2019-04-29T12:34:31.295Z,14.20
2019-04-29T12:36:59.453Z,14.20
2019-04-29T12:40:00.572Z,14.30
2019-04-29T12:42:59.328Z,14.30
2019-04-29T12:45:31.017Z,14.40
2019-04-29T12:47:58.354Z,14.40
2019-04-29T12:50:26.879Z,14.40
2019-04-29T12:52:54.213Z,14.30
2019-04-29T12:55:43.624Z,14.20
2019-04-29T12:57:58.087Z,14.10
2019-04-29T13:00:29.473Z,14.00
2019-04-29T13:03:03.902Z,13.90
2019-04-29T13:06:09.376Z,13.90
2019-04-29T13:08:42.779Z,14.00
2019-04-29T13:11:10.336Z,14.00
2019-04-29T13:13:38.476Z,14.00
2019-04-29T13:16:22.047Z,14.00
2019-04-29T13:19:10.416Z,14.20
2019-04-29T13:21:26.262Z,14.10
2019-04-29T13:24:05.310Z,14.20
2019-04-29T13:26:28.341Z,14.30
2019-04-29T13:29:00.367Z,14.40
2019-04-29T13:31:37.140Z,14.40
2019-04-29T13:33:53.253Z,14.40
2019-04-29T13:36:26.014Z,14.30
2019-04-29T13:38:52.098Z,14.30
2019-04-29T13:41:24.322Z,14.10
2019-04-29T13:43:51.545Z,14.10
2019-04-29T13:46:26.056Z,14.00
2019-04-29T13:49:25.140Z,14.00
2019-04-29T13:51:53.467Z,14.00
2019-04-29T13:54:22.982Z,14.00
2019-04-29T13:56:56.024Z,14.00
2019-04-29T13:59:28.195Z,13.90
2019-04-29T14:02:14.792Z,13.90
2019-04-29T14:04:46.874Z,13.80
2019-04-29T14:07:18.314Z,13.80
2019-04-29T14:09:47.740Z,13.70
2019-04-29T14:12:47.037Z,13.60
2019-04-29T14:14:44.099Z,13.60
2019-04-29T14:17:31.406Z,13.60
2019-04-29T14:19:56.820Z,13.60
2019-04-29T14:22:22.954Z,13.60
2019-04-29T14:24:50.516Z,13.60
2019-04-29T14:27:25.278Z,13.60
2019-04-29T14:29:47.730Z,13.70
2019-04-29T14:32:18.277Z,13.70
2019-04-29T14:35:00.604Z,13.70
2019-04-29T14:37:30.276Z,13.70
2019-04-29T14:39:57.828Z,13.80
2019-04-29T14:42:35.811Z,13.80
2019-04-29T14:45:26.520Z,13.80
2019-04-29T14:48:42.157Z,13.80
2019-04-29T14:51:04.398Z,13.80
2019-04-29T14:53:31.871Z,13.90
2019-04-29T14:55:59.220Z,13.90
2019-04-29T14:58:27.920Z,13.90
2019-04-29T15:02:01.250Z,13.80
2019-04-29T15:04:32.453Z,13.80
2019-04-29T15:07:00.462Z,13.60
2019-04-29T15:09:28.091Z,13.60
2019-04-29T15:12:08.143Z,13.50
2019-04-29T15:14:54.661Z,13.50
2019-04-29T15:17:32.417Z,13.60
2019-04-29T15:20:06.778Z,13.70
2019-04-29T15:22:36.966Z,13.80
2019-04-29T15:25:05.305Z,13.90
2019-04-29T15:27:33.448Z,13.90
2019-04-29T15:30:00.966Z,13.90
2019-04-29T15:32:31.188Z,13.80
2019-04-29T15:34:58.688Z,13.80
2019-04-29T15:37:26.236Z,13.70
2019-04-29T15:39:57.816Z,13.60
2019-04-29T15:42:24.494Z,13.60
2019-04-29T15:44:55.880Z,13.50
2019-04-29T15:47:21.744Z,13.50
2019-04-29T15:49:49.700Z,13.40
2019-04-29T15:52:21.113Z,13.40
2019-04-29T15:54:50.987Z,13.20
2019-04-29T15:57:16.629Z,13.20
2019-04-29T15:59:48.987Z,13.20
2019-04-29T16:02:15.476Z,13.20
2019-04-29T16:04:48.695Z,13.20
2019-04-29T16:07:32.871Z,13.20
2019-04-29T16:10:25.159Z,13.20
2019-04-29T16:12:59.433Z,13.20
2019-04-29T16:15:26.898Z,13.20
2019-04-29T16:17:54.311Z,13.30
2019-04-29T16:20:21.820Z,13.20
2019-04-29T16:22:54.361Z,13.30
2019-04-29T16:25:18.955Z,13.20
2019-04-29T16:27:52.926Z,13.20
2019-04-29T16:30:19.135Z,13.10
2019-04-29T16:32:47.121Z,13.10
2019-04-29T16:35:17.874Z,13.10
2019-04-29T16:37:44.118Z,13.10
2019-04-29T16:40:11.915Z,13.10
2019-04-29T16:42:56.600Z,13.10
2019-04-29T16:45:35.938Z,13.00
2019-04-29T16:48:06.771Z,13.00
2019-04-29T16:50:36.647Z,13.00
2019-04-29T16:53:04.439Z,13.00
2019-04-29T16:55:35.983Z,13.00
2019-04-29T16:58:07.652Z,13.00
2019-04-29T17:00:33.657Z,13.00
2019-04-29T17:03:01.299Z,13.00
2019-04-29T17:05:29.070Z,13.00
2019-04-29T17:07:57.087Z,13.00
2019-04-29T17:10:35.537Z,12.90
2019-04-29T17:13:03.636Z,13.00
2019-04-29T17:15:34.219Z,12.90
2019-04-29T17:18:03.870Z,12.90
2019-04-29T17:20:31.673Z,12.90
2019-04-29T17:23:00.124Z,12.90
2019-04-29T17:25:29.494Z,12.90
2019-04-29T17:28:11.974Z,12.90
2019-04-29T17:31:13.636Z,12.90
2019-04-29T17:33:51.527Z,12.80
2019-04-29T17:36:23.781Z,12.80
2019-04-29T17:38:49.694Z,12.90
2019-04-29T17:41:17.255Z,12.80
2019-04-29T17:44:14.579Z,12.80
2019-04-29T17:47:00.985Z,12.80
2019-04-29T17:49:37.107Z,12.70
2019-04-29T17:52:13.203Z,12.70
2019-04-29T17:54:44.937Z,12.70
2019-04-29T17:57:46.508Z,12.70
2019-04-29T18:00:42.265Z,12.60
2019-04-29T18:03:41.618Z,12.60
2019-04-29T18:06:18.795Z,12.20
2019-04-29T18:08:59.897Z,12.50
2019-04-29T18:11:27.938Z,12.50
2019-04-29T18:13:58.997Z,12.50
2019-04-29T18:16:43.706Z,12.40
2019-04-29T18:19:18.175Z,12.40
2019-04-29T18:22:24.827Z,12.40
2019-04-29T18:25:30.059Z,12.30
2019-04-29T18:27:53.518Z,12.30
2019-04-29T18:30:35.498Z,12.30
2019-04-29T18:32:55.905Z,12.30
2019-04-29T18:35:25.564Z,12.20
2019-04-29T18:37:55.631Z,12.20
2019-04-29T18:40:27.060Z,12.20
2019-04-29T18:42:56.644Z,12.30
2019-04-29T18:45:30.059Z,12.30
2019-04-29T18:47:57.058Z,12.30
2019-04-29T18:50:25.325Z,12.30
2019-04-29T18:52:58.644Z,12.40
2019-04-29T18:55:28.140Z,12.30
2019-04-29T18:57:58.452Z,12.30
2019-04-29T19:00:31.125Z,12.30
2019-04-29T19:03:01.091Z,12.40
2019-04-29T19:05:39.802Z,12.40
2019-04-29T19:08:14.332Z,12.30
2019-04-29T19:10:37.430Z,12.40
2019-04-29T19:13:14.210Z,12.30
2019-04-29T19:15:35.450Z,12.40
2019-04-29T19:18:06.109Z,12.40
2019-04-29T19:20:33.426Z,12.50
2019-04-29T19:23:08.211Z,12.50
2019-04-29T19:25:32.014Z,12.50
2019-04-29T19:28:11.389Z,12.50
2019-04-29T19:30:29.416Z,12.60
2019-04-29T19:33:00.413Z,12.50
2019-04-29T19:35:29.421Z,12.50
2019-04-29T19:38:47.251Z,12.60
2019-04-29T19:41:16.274Z,12.60
2019-04-29T19:43:48.382Z,12.60
2019-04-29T19:46:22.701Z,12.60
2019-04-29T19:48:42.918Z,12.60
2019-04-29T19:51:22.932Z,12.60
2019-04-29T19:53:50.038Z,12.60
2019-04-29T19:56:23.417Z,12.60
2019-04-29T19:58:47.696Z,12.60
2019-04-29T20:01:32.127Z,12.60
2019-04-29T20:04:32.882Z,12.60
2019-04-29T20:07:06.289Z,12.60
2019-04-29T20:09:36.642Z,12.60
2019-04-29T20:12:12.805Z,12.70
2019-04-29T20:14:37.235Z,12.60
2019-04-29T20:17:30.890Z,12.60
2019-04-29T20:20:09.721Z,12.60
2019-04-29T20:22:43.001Z,12.60
2019-04-29T20:25:30.799Z,12.50
2019-04-29T20:28:28.040Z,12.60
2019-04-29T20:31:15.360Z,12.60
2019-04-29T20:33:34.308Z,12.60
2019-04-29T20:36:06.073Z,12.60
2019-04-29T20:38:38.749Z,12.60
2019-04-29T20:41:08.008Z,12.60
2019-04-29T20:43:36.017Z,12.60
2019-04-29T20:46:04.528Z,12.60
2019-04-29T20:48:32.317Z,12.60
2019-04-29T20:51:10.623Z,12.60
2019-04-29T20:53:44.179Z,12.60
2019-04-29T20:56:23.585Z,12.60
2019-04-29T20:58:44.462Z,12.60
2019-04-29T21:01:18.815Z,12.60
2019-04-29T21:03:52.043Z,12.60
2019-04-29T21:06:15.837Z,12.60
2019-04-29T21:08:46.703Z,12.60
2019-04-29T21:11:21.004Z,12.70
2019-04-29T21:14:08.573Z,12.60
2019-04-29T21:16:41.084Z,12.60
2019-04-29T21:19:09.127Z,12.50
2019-04-29T21:21:41.317Z,12.50
2019-04-29T21:24:13.763Z,12.60
2019-04-29T21:26:37.940Z,12.50
2019-04-29T21:29:06.074Z,12.50
2019-04-29T21:31:35.538Z,12.60
2019-04-29T21:34:05.431Z,12.60
2019-04-29T21:37:05.934Z,12.60
2019-04-29T21:39:42.018Z,12.60
2019-04-29T21:42:35.731Z,12.60
2019-04-29T21:45:03.964Z,12.60
2019-04-29T21:47:42.676Z,12.60
2019-04-29T21:50:02.568Z,12.60
2019-04-29T21:52:30.484Z,12.60
2019-04-29T21:54:58.058Z,12.60
2019-04-29T21:57:25.792Z,12.60
2019-04-29T21:59:55.541Z,12.60
2019-04-29T22:02:26.073Z,12.60
2019-04-29T22:04:55.196Z,12.60
2019-04-29T22:07:23.095Z,12.60
2019-04-29T22:09:50.605Z,12.60
2019-04-29T22:12:20.278Z,12.60
2019-04-29T22:14:53.019Z,12.60
2019-04-29T22:17:17.356Z,12.60
2019-04-29T22:19:45.194Z,12.60
2019-04-29T22:22:12.706Z,12.60
2019-04-29T22:24:40.162Z,12.60
2019-04-29T22:27:08.279Z,12.50
2019-04-29T22:29:37.487Z,12.40
2019-04-29T22:32:07.788Z,12.50
2019-04-29T22:34:35.989Z,12.50
2019-04-29T22:37:05.381Z,12.50
2019-04-29T22:39:33.119Z,12.50
2019-04-29T22:42:07.179Z,12.50
2019-04-29T22:44:36.056Z,12.50
2019-04-29T22:47:05.642Z,12.50
2019-04-29T22:49:34.079Z,12.30
2019-04-29T22:52:01.515Z,12.50
2019-04-29T22:54:29.170Z,12.40
2019-04-29T22:56:56.833Z,12.50
2019-04-29T22:59:25.393Z,12.70
2019-04-29T23:01:53.275Z,12.40
2019-04-29T23:04:20.743Z,12.40
2019-04-29T23:06:48.217Z,12.40
2019-04-29T23:09:15.730Z,12.40
2019-04-29T23:11:45.028Z,12.30
2019-04-29T23:14:12.743Z,12.30
2019-04-29T23:16:41.229Z,12.30
2019-04-29T23:19:13.891Z,12.40
2019-04-29T23:22:05.905Z,12.30
2019-04-29T23:24:52.728Z,12.30
2019-04-29T23:27:20.167Z,12.30
2019-04-29T23:29:47.522Z,12.30
2019-04-29T23:32:15.373Z,12.20
2019-04-29T23:34:44.002Z,12.20
2019-04-29T23:37:11.460Z,12.10
2019-04-29T23:39:39.521Z,12.20
2019-04-29T23:42:12.310Z,11.90
2019-04-29T23:44:41.852Z,12.20
2019-04-29T23:47:10.241Z,12.30
2019-04-29T23:49:42.358Z,12.20
2019-04-29T23:52:06.803Z,12.20
2019-04-29T23:54:44.195Z,12.20
2019-04-29T23:57:24.027Z,12.10
